Time;durP1;ratioP1;P1;durP2;ratioP2;P2;SDS_P1;SDS_P2;PMS_P1;PMS_P2;Temp;Humidity;BMP_temperature;BMP_pressure;BME280_temperature;BME280_humidity;BME280_pressure;Samples;Min_cycle;Max_cycle;Signal;HPM_P1;HPM_P2
2022/12/08 00:01:26;;;;;;;6.13;3.80;;;;;;;6.22;71.09;100559.00;4976870;28;96861;-48
2022/12/08 00:03:53;;;;;;;6.87;4.17;;;;;;;6.22;70.74;100555.50;4973499;28;97117;-48
2022/12/08 00:09:20;;;;;;;13.50;4.87;;;;;;;6.23;70.83;100549.56;4976039;28;100343;-48
2022/12/08 00:11:46;;;;;;;6.37;4.37;;;;;;;6.26;71.09;100554.09;4961713;28;97414;-48
2022/12/08 00:14:12;;;;;;;8.30;4.80;;;;;;;6.25;70.72;100552.56;4957434;28;97310;-48
2022/12/08 00:16:37;;;;;;;6.20;4.37;;;;;;;6.27;70.92;100557.59;4952196;28;97328;-48
2022/12/08 00:19:02;;;;;;;4.90;4.40;;;;;;;6.26;70.64;100551.38;4953854;28;96945;-47
2022/12/08 00:21:28;;;;;;;7.00;4.53;;;;;;;6.24;70.88;100550.31;4956336;28;97229;-48
2022/12/08 00:23:55;;;;;;;5.60;4.40;;;;;;;6.25;71.08;100552.56;4958693;28;97186;-48
2022/12/08 00:26:20;;;;;;;5.27;4.30;;;;;;;6.26;70.79;100550.63;4962067;28;97414;-48
2022/12/08 00:28:46;;;;;;;7.50;4.60;;;;;;;6.27;70.91;100547.41;4973174;28;98047;-48
2022/12/08 00:31:12;;;;;;;6.63;4.43;;;;;;;6.27;70.85;100547.41;4975593;28;97179;-49
2022/12/08 00:33:37;;;;;;;5.93;4.33;;;;;;;6.28;71.04;100539.97;4980840;28;97046;-48
2022/12/08 00:36:07;;;;;;;5.53;4.50;;;;;;;6.29;70.93;100533.31;4976090;28;97164;-48
2022/12/08 00:38:33;;;;;;;7.23;3.90;;;;;;;6.31;70.98;100536.31;4979966;28;97430;-48
2022/12/08 00:40:59;;;;;;;5.10;4.60;;;;;;;6.31;70.88;100530.84;4978992;28;96681;-48
2022/12/08 00:43:24;;;;;;;6.47;4.30;;;;;;;6.31;70.89;100528.13;4971568;28;97131;-47
2022/12/08 00:45:49;;;;;;;7.00;4.50;;;;;;;6.31;70.88;100522.66;4971640;28;97375;-47
2022/12/08 00:48:15;;;;;;;7.77;4.13;;;;;;;6.32;70.81;100524.16;4973660;28;97730;-48
2022/12/08 00:50:40;;;;;;;6.57;4.97;;;;;;;6.34;70.92;100521.72;4980397;28;97123;-48
2022/12/08 00:53:05;;;;;;;7.40;4.90;;;;;;;6.33;71.03;100512.03;4979938;28;97366;-48
2022/12/08 00:55:31;;;;;;;5.10;4.03;;;;;;;6.32;71.04;100508.53;4981263;28;97382;-49
2022/12/08 00:57:56;;;;;;;6.03;4.50;;;;;;;6.31;70.74;100504.28;4980245;28;96749;-48
2022/12/08 01:00:21;;;;;;;8.90;4.87;;;;;;;6.31;70.62;100503.53;4974057;27;99945;-48
2022/12/08 01:02:47;;;;;;;7.10;5.07;;;;;;;6.30;71.04;100500.03;4979225;27;97476;-47
2022/12/08 01:05:12;;;;;;;6.00;4.77;;;;;;;6.29;70.68;100508.72;4978808;28;97149;-48
2022/12/08 01:07:38;;;;;;;8.90;4.67;;;;;;;6.28;70.91;100499.00;4976455;28;97485;-48
2022/12/08 01:10:04;;;;;;;5.63;4.33;;;;;;;6.28;71.08;100497.03;4981327;28;97472;-48
2022/12/08 01:12:29;;;;;;;5.20;4.70;;;;;;;6.28;71.16;100499.75;4978932;28;97093;-48
2022/12/08 01:14:54;;;;;;;4.90;4.47;;;;;;;6.30;71.20;100500.03;4978782;28;97303;-48
2022/12/08 01:17:20;;;;;;;6.80;4.30;;;;;;;6.31;70.92;100493.34;4974121;28;97082;-48
2022/12/08 01:19:45;;;;;;;6.17;4.47;;;;;;;6.30;70.91;100499.28;4978655;28;97155;-48
2022/12/08 01:22:10;;;;;;;5.50;4.63;;;;;;;6.28;70.80;100502.50;4979960;28;103814;-48
2022/12/08 01:24:36;;;;;;;6.07;4.53;;;;;;;6.30;71.27;100502.00;4977577;28;97239;-47
2022/12/08 01:27:01;;;;;;;4.47;4.07;;;;;;;6.32;70.89;100499.56;4980479;28;97177;-48
2022/12/08 01:29:27;;;;;;;11.20;4.17;;;;;;;6.33;70.83;100510.06;4979845;28;97063;-48
2022/12/08 01:31:52;;;;;;;5.50;5.00;;;;;;;6.32;70.75;100499.56;4982087;28;97548;-47
2022/12/08 01:34:17;;;;;;;6.50;4.80;;;;;;;6.32;70.99;100496.84;4976496;28;97404;-47
2022/12/08 01:36:43;;;;;;;7.83;4.83;;;;;;;6.31;70.95;100496.06;4977886;27;97210;-48
2022/12/08 01:39:17;;;;;;;6.00;4.03;;;;;;;6.35;71.07;100501.38;4982149;28;97205;-48
2022/12/08 01:41:44;;;;;;;5.83;4.50;;;;;;;6.37;70.84;100488.00;4985136;28;97504;-48
2022/12/08 01:44:10;;;;;;;6.50;4.47;;;;;;;6.34;70.74;100478.75;4979983;28;96909;-48
2022/12/08 01:46:41;;;;;;;6.83;5.00;;;;;;;6.33;70.56;100482.72;4981859;28;97297;-47
2022/12/08 01:49:12;;;;;;;7.37;5.20;;;;;;;6.36;70.93;100478.28;4976323;28;97155;-48
2022/12/08 01:51:43;;;;;;;9.00;5.53;;;;;;;6.36;70.75;100483.75;4982284;28;97459;-47
2022/12/08 01:54:10;;;;;;;9.17;5.00;;;;;;;6.36;71.13;100486.47;4980571;28;98353;-48
2022/12/08 01:56:55;;;;;;;6.80;5.00;;;;;;;6.34;70.65;100483.47;4978501;28;97375;-48
2022/12/08 01:59:22;;;;;;;7.33;5.33;;;;;;;6.35;71.29;100487.72;4960357;28;96673;-48
2022/12/08 02:01:47;;;;;;;8.37;5.33;;;;;;;6.36;70.57;100484.50;4961470;28;96834;-48
2022/12/08 02:04:13;;;;;;;7.47;5.43;;;;;;;6.35;70.87;100488.47;4957773;28;97564;-47
2022/12/08 02:06:42;;;;;;;5.50;4.97;;;;;;;6.36;70.95;100481.03;4956483;28;97126;-48
2022/12/08 02:09:08;;;;;;;5.67;5.13;;;;;;;6.36;71.01;100476.31;4956654;28;97401;-48
2022/12/08 02:11:33;;;;;;;6.80;5.27;;;;;;;6.34;70.95;100469.81;4957982;28;97072;-47
2022/12/08 02:14:01;;;;;;;6.50;4.70;;;;;;;6.31;71.01;100471.50;4975687;27;96801;-47
2022/12/08 02:16:26;;;;;;;6.40;5.37;;;;;;;6.32;70.92;100467.56;4979930;28;97067;-47
2022/12/08 02:19:20;;;;;;;6.60;5.57;;;;;;;6.34;71.11;100467.06;4980069;28;97639;-47
2022/12/08 02:22:14;;;;;;;6.33;4.90;;;;;;;6.34;71.05;100461.63;4958861;28;97247;-49
2022/12/08 02:24:57;;;;;;;5.40;4.80;;;;;;;6.32;70.71;100459.34;4961879;28;97922;-48
2022/12/08 02:27:36;;;;;;;7.10;5.37;;;;;;;6.32;70.74;100461.31;4967570;28;101627;-48
2022/12/08 02:30:32;;;;;;;7.57;5.43;;;;;;;6.31;70.59;100460.56;4981771;28;97076;-47
2022/12/08 02:33:26;;;;;;;6.20;4.87;;;;;;;6.30;70.54;100455.56;4972024;28;97583;-48
2022/12/08 02:36:09;;;;;;;9.00;5.87;;;;;;;6.31;70.98;100459.84;4977999;28;102062;-47
2022/12/08 02:38:54;;;;;;;10.70;6.37;;;;;;;6.29;71.08;100457.53;4962166;28;100263;-47
2022/12/08 02:41:44;;;;;;;9.60;6.63;;;;;;;6.27;70.77;100453.78;4963049;28;97060;-47
2022/12/08 02:44:23;;;;;;;11.63;6.83;;;;;;;6.28;70.95;100445.13;4980645;28;97081;-47
2022/12/08 02:46:56;;;;;;;9.13;6.33;;;;;;;6.25;71.13;100442.56;4976744;28;97334;-48
2022/12/08 02:49:28;;;;;;;9.67;6.27;;;;;;;6.25;71.07;100445.28;4979218;28;96654;-47
2022/12/08 02:52:04;;;;;;;10.33;6.20;;;;;;;6.25;70.79;100437.09;4964188;28;96731;-48
2022/12/08 02:54:30;;;;;;;11.27;6.00;;;;;;;6.25;71.16;100439.81;4964606;28;97173;-47
2022/12/08 02:57:13;;;;;;;8.53;5.93;;;;;;;6.30;71.28;100436.44;4968923;28;97440;-48
2022/12/08 03:00:28;;;;;;;10.70;6.57;;;;;;;6.30;71.00;100439.94;4977704;28;97193;-47
2022/12/08 03:03:08;;;;;;;7.67;5.93;;;;;;;6.28;71.30;100436.16;4912013;28;96851;-47
2022/12/08 03:05:55;;;;;;;8.30;6.20;;;;;;;6.29;70.96;100435.69;4917733;28;97053;-47
2022/12/08 03:08:31;;;;;;;15.00;6.20;;;;;;;6.32;70.83;100431.28;4957332;28;101911;-47
2022/12/08 03:11:10;;;;;;;10.37;6.40;;;;;;;6.32;70.79;100429.31;4977441;28;101463;-47
2022/12/08 03:13:59;;;;;;;9.40;5.97;;;;;;;6.29;70.67;100421.31;4977909;28;97299;-47
2022/12/08 03:16:26;;;;;;;7.50;5.47;;;;;;;6.26;70.94;100427.69;4977605;28;97437;-48
2022/12/08 03:18:59;;;;;;;12.00;6.50;;;;;;;6.30;70.77;100422.78;4974892;28;97395;-47
2022/12/08 03:21:26;;;;;;;10.33;6.20;;;;;;;6.30;70.97;100409.13;4980634;28;97248;-47
2022/12/08 03:23:55;;;;;;;7.30;6.17;;;;;;;6.31;70.77;100410.66;4975059;28;97162;-47
2022/12/08 03:26:37;;;;;;;9.87;6.27;;;;;;;6.28;70.35;100403.38;4959323;28;97454;-47
2022/12/08 03:29:03;;;;;;;8.57;5.80;;;;;;;6.25;70.74;100393.38;4960107;28;97449;-47
2022/12/08 03:31:33;;;;;;;7.17;5.70;;;;;;;6.23;70.88;100393.09;4972031;28;99642;-47
2022/12/08 03:33:59;;;;;;;9.83;6.30;;;;;;;6.24;71.07;100395.38;4980103;28;97271;-48
2022/12/08 03:36:25;;;;;;;12.90;6.83;;;;;;;6.25;70.67;100391.41;4981494;28;96833;-47
2022/12/08 03:38:53;;;;;;;11.53;7.43;;;;;;;6.23;70.81;100388.41;4978679;28;97415;-47
2022/12/08 03:41:22;;;;;;;9.13;7.27;;;;;;;6.23;70.69;100384.91;4981383;27;101560;-47
2022/12/08 03:43:58;;;;;;;9.53;6.60;;;;;;;6.24;70.67;100389.94;4959773;28;97314;-47
2022/12/08 03:46:25;;;;;;;9.30;6.13;;;;;;;6.24;70.50;100391.91;4979393;28;97495;-47
2022/12/08 03:48:50;;;;;;;10.33;7.30;;;;;;;6.21;70.79;100384.63;4979331;28;101844;-47
2022/12/08 03:51:16;;;;;;;9.17;6.80;;;;;;;6.19;70.83;100379.66;4975352;28;97197;-48
2022/12/08 03:53:42;;;;;;;9.03;6.60;;;;;;;6.19;70.77;100387.06;4976452;28;96672;-48
2022/12/08 03:56:29;;;;;;;10.27;6.83;;;;;;;6.18;70.42;100374.66;4971067;28;97194;-47
2022/12/08 03:58:55;;;;;;;12.53;7.87;;;;;;;6.15;71.01;100378.31;4980053;28;96980;-47
2022/12/08 04:01:21;;;;;;;9.30;7.17;;;;;;;6.16;70.86;100374.38;4973999;28;101010;-47
2022/12/08 04:03:47;;;;;;;9.47;6.70;;;;;;;6.15;70.59;100362.69;4967373;28;96731;-48
2022/12/08 04:06:13;;;;;;;11.03;7.30;;;;;;;6.17;70.92;100367.66;4953926;28;97099;-48
2022/12/08 04:08:39;;;;;;;13.37;7.10;;;;;;;6.17;70.64;100368.44;4962977;28;97118;-47
2022/12/08 04:11:05;;;;;;;10.30;6.57;;;;;;;6.18;70.66;100361.72;4972643;28;97178;-47
2022/12/08 04:13:32;;;;;;;10.60;7.60;;;;;;;6.17;70.80;100352.03;4970731;28;97123;-47
2022/12/08 04:15:57;;;;;;;9.47;7.10;;;;;;;6.17;70.50;100357.50;4980945;28;97684;-47
2022/12/08 04:18:22;;;;;;;9.50;7.70;;;;;;;6.16;70.74;100342.34;4982750;28;97000;-47
2022/12/08 04:20:48;;;;;;;17.50;7.97;;;;;;;6.15;70.84;100340.09;4977249;28;97178;-47
2022/12/08 04:23:13;;;;;;;11.37;7.93;;;;;;;6.18;70.73;100341.88;4978070;28;97048;-48
2022/12/08 04:25:38;;;;;;;11.13;7.07;;;;;;;6.18;70.84;100341.88;4977634;28;97031;-48
2022/12/08 04:28:04;;;;;;;9.00;7.43;;;;;;;6.19;70.74;100340.66;4975649;28;96605;-48
2022/12/08 04:30:31;;;;;;;11.93;7.00;;;;;;;6.20;70.63;100339.44;4976951;28;101967;-47
2022/12/08 04:32:57;;;;;;;12.27;7.90;;;;;;;6.18;70.76;100333.69;4979668;28;96912;-47
2022/12/08 04:35:22;;;;;;;9.00;7.00;;;;;;;6.17;70.69;100337.63;4979902;28;97633;-48
2022/12/08 04:37:47;;;;;;;8.97;7.20;;;;;;;6.17;70.70;100329.44;4981178;28;97085;-48
2022/12/08 04:40:13;;;;;;;9.17;6.73;;;;;;;6.17;70.92;100334.91;4985245;28;97671;-47
2022/12/08 04:42:38;;;;;;;14.63;7.73;;;;;;;6.18;70.66;100341.88;4979568;28;96889;-47
2022/12/08 04:45:04;;;;;;;13.63;7.40;;;;;;;6.18;70.71;100339.16;4959276;28;96855;-47
2022/12/08 04:47:30;;;;;;;11.70;7.80;;;;;;;6.16;71.13;100328.69;4960229;28;97181;-47
2022/12/08 04:49:55;;;;;;;10.70;7.70;;;;;;;6.17;70.63;100327.47;4960753;28;97159;-47
2022/12/08 04:52:20;;;;;;;11.67;8.33;;;;;;;6.17;70.70;100322.00;4971112;28;97149;-47
2022/12/08 04:54:46;;;;;;;13.33;6.90;;;;;;;6.18;70.76;100328.22;4981456;28;97405;-47
2022/12/08 04:57:11;;;;;;;12.03;8.40;;;;;;;6.17;71.10;100318.50;4976607;28;98249;-47
2022/12/08 04:59:37;;;;;;;13.23;9.27;;;;;;;6.18;70.94;100331.69;4978330;28;104488;-47
2022/12/08 05:02:02;;;;;;;13.50;9.20;;;;;;;6.18;71.02;100320.78;4977516;28;97046;-48
2022/12/08 05:04:27;;;;;;;14.53;8.93;;;;;;;6.18;71.09;100328.97;4962649;27;98474;-47
2022/12/08 05:06:53;;;;;;;16.50;9.87;;;;;;;6.17;70.97;100321.25;4960481;28;97228;-47
2022/12/08 05:09:18;;;;;;;16.43;10.73;;;;;;;6.16;70.75;100325.94;4957432;28;97563;-47
2022/12/08 05:11:43;;;;;;;15.00;9.60;;;;;;;6.18;70.98;100320.78;4960041;28;96808;-48
2022/12/08 05:14:10;;;;;;;13.37;9.47;;;;;;;6.18;70.99;100320.78;4963216;28;97302;-47
2022/12/08 05:16:37;;;;;;;13.40;9.60;;;;;;;6.20;70.73;100323.81;4964681;28;97272;-47
2022/12/08 05:19:02;;;;;;;16.07;9.73;;;;;;;6.21;70.91;100316.34;4981374;27;97777;-47
2022/12/08 05:21:28;;;;;;;17.47;8.97;;;;;;;6.22;70.93;100326.06;4978663;28;97518;-47
2022/12/08 05:23:53;;;;;;;14.60;9.60;;;;;;;6.22;70.94;100328.78;4983982;28;96946;-51
2022/12/08 05:26:18;;;;;;;13.70;9.60;;;;;;;6.22;71.19;100323.34;4977234;28;96823;-47
2022/12/08 05:28:44;;;;;;;14.80;9.33;;;;;;;6.22;71.20;100326.06;4981767;28;97554;-47
2022/12/08 05:31:14;;;;;;;13.53;10.00;;;;;;;6.21;71.25;100327.28;4984989;28;96773;-48
2022/12/08 05:33:39;;;;;;;14.53;9.13;;;;;;;6.18;71.14;100322.75;4977250;28;96758;-47
2022/12/08 05:36:06;;;;;;;12.70;8.90;;;;;;;6.17;70.86;100323.97;4976794;28;97278;-48
2022/12/08 05:38:31;;;;;;;10.03;8.10;;;;;;;6.17;70.80;100322.00;4965073;28;98769;-47
2022/12/08 05:40:57;;;;;;;15.63;9.77;;;;;;;6.17;70.90;100321.25;4958985;28;97023;-47
2022/12/08 05:43:22;;;;;;;15.33;9.87;;;;;;;6.16;71.00;100317.75;4958598;28;97446;-48
2022/12/08 05:45:48;;;;;;;13.07;8.43;;;;;;;6.16;70.82;100325.22;4960569;28;97051;-48
2022/12/08 05:48:14;;;;;;;14.43;8.23;;;;;;;6.17;70.95;100308.34;4962867;28;97191;-47
2022/12/08 05:50:44;;;;;;;13.77;8.63;;;;;;;6.18;70.94;100312.56;4961817;28;97050;-48
2022/12/08 05:53:10;;;;;;;15.10;9.30;;;;;;;6.18;70.79;100306.38;4959999;28;97193;-47
2022/12/08 05:55:35;;;;;;;14.10;8.90;;;;;;;6.18;70.65;100312.56;4955772;28;96817;-47
2022/12/08 05:58:00;;;;;;;14.97;9.97;;;;;;;6.20;70.90;100312.13;4959852;27;97218;-48
2022/12/08 06:00:26;;;;;;;16.27;9.27;;;;;;;6.21;70.87;100302.69;4964419;28;96982;-48
2022/12/08 06:02:51;;;;;;;15.67;9.87;;;;;;;6.20;70.64;100309.41;4962406;28;97323;-47
2022/12/08 06:05:17;;;;;;;15.70;9.23;;;;;;;6.19;70.63;100307.88;4959144;28;96943;-48
2022/12/08 06:07:42;;;;;;;12.63;7.90;;;;;;;6.19;70.94;100311.38;4960151;28;97842;-47
2022/12/08 06:10:08;;;;;;;12.77;8.20;;;;;;;6.19;70.84;100310.59;4963410;28;97278;-47
2022/12/08 06:12:33;;;;;;;13.03;8.70;;;;;;;6.16;70.90;100295.19;4960755;28;97284;-47
2022/12/08 06:14:58;;;;;;;12.70;8.80;;;;;;;6.14;70.50;100294.91;4961767;28;96794;-47
2022/12/08 06:17:24;;;;;;;12.50;8.87;;;;;;;6.15;70.65;100293.66;4964851;28;96786;-47
2022/12/08 06:19:49;;;;;;;12.07;8.13;;;;;;;6.16;70.73;100295.19;4959840;28;97804;-47
2022/12/08 06:22:14;;;;;;;10.80;8.30;;;;;;;6.17;70.81;100300.16;4959294;28;96944;-48
2022/12/08 06:24:40;;;;;;;12.13;8.27;;;;;;;6.19;70.89;100291.50;4959967;28;97325;-48
2022/12/08 06:27:05;;;;;;;14.13;8.37;;;;;;;6.19;70.53;100296.94;4958469;28;96717;-47
2022/12/08 06:29:30;;;;;;;15.63;8.97;;;;;;;6.19;70.86;100294.22;4978669;28;96825;-48
2022/12/08 06:31:56;;;;;;;11.43;8.77;;;;;;;6.21;70.88;100294.50;4982082;28;96776;-47
2022/12/08 06:34:21;;;;;;;16.80;9.47;;;;;;;6.23;70.91;100308.44;4975685;28;97060;-48
2022/12/08 06:36:47;;;;;;;12.73;8.80;;;;;;;6.26;70.55;100304.78;4959904;27;97049;-47
2022/12/08 06:39:12;;;;;;;16.00;9.20;;;;;;;6.27;70.83;100300.84;4964568;27;97855;-47
2022/12/08 06:42:42;;;;;;;13.07;8.33;;;;;;;6.25;70.67;100295.06;4964163;27;96813;-48
2022/12/08 06:44:23;;;;;;;16.63;9.50;;;;;;;6.24;70.72;100302.53;4959624;28;97344;-48
2022/12/08 06:46:48;;;;;;;16.23;10.03;;;;;;;6.26;70.83;100299.31;4960539;28;97320;-47
2022/12/08 06:49:13;;;;;;;13.53;9.40;;;;;;;6.28;70.91;100297.63;4961238;28;97311;-47
2022/12/08 06:51:38;;;;;;;10.70;8.20;;;;;;;6.28;70.79;100303.09;4963777;28;97273;-47
2022/12/08 06:54:04;;;;;;;13.47;9.37;;;;;;;6.29;70.94;100301.84;4982327;28;100491;-47
2022/12/08 06:56:29;;;;;;;14.77;8.70;;;;;;;6.28;70.90;100297.63;4982353;28;97083;-47
2022/12/08 06:58:55;;;;;;;14.70;10.00;;;;;;;6.31;70.70;100304.13;4980193;28;97084;-49
2022/12/08 07:01:20;;;;;;;13.70;8.80;;;;;;;6.29;70.87;100315.50;4978888;28;97368;-48
2022/12/08 07:03:46;;;;;;;14.17;8.87;;;;;;;6.31;70.70;100312.31;4980427;28;97091;-47
2022/12/08 07:06:21;;;;;;;14.27;8.73;;;;;;;6.35;70.89;100313.66;4981181;28;97206;-48
2022/12/08 07:08:46;;;;;;;13.93;9.07;;;;;;;6.37;70.72;100311.19;4982018;28;96943;-47
2022/12/08 07:11:12;;;;;;;11.70;8.63;;;;;;;6.38;70.45;100317.38;4982039;28;96885;-47
2022/12/08 07:13:37;;;;;;;13.07;8.60;;;;;;;6.36;70.59;100314.38;4980008;28;97336;-48
2022/12/08 07:16:07;;;;;;;13.07;8.63;;;;;;;6.37;70.98;100310.44;4982694;28;97219;-48
2022/12/08 07:18:33;;;;;;;14.20;8.90;;;;;;;6.36;71.23;100315.13;4982298;28;97306;-47
2022/12/08 07:21:07;;;;;;;12.23;8.40;;;;;;;6.39;70.92;100318.91;4967197;28;97503;-47
2022/12/08 07:23:32;;;;;;;9.73;7.33;;;;;;;6.40;70.76;100317.69;4971395;28;102267;-47
2022/12/08 07:26:07;;;;;;;13.33;8.90;;;;;;;6.41;70.81;100321.91;4983312;28;97143;-47
2022/12/08 07:28:34;;;;;;;11.97;8.27;;;;;;;6.41;71.04;100327.38;4982418;28;96750;-47
2022/12/08 07:30:59;;;;;;;16.90;9.57;;;;;;;6.38;70.82;100325.59;4983343;28;97409;-47
2022/12/08 07:33:25;;;;;;;11.73;8.00;;;;;;;6.41;70.95;100321.91;4979030;28;97389;-47
2022/12/08 07:36:02;;;;;;;12.93;8.60;;;;;;;6.41;70.84;100322.69;4973229;28;97111;-48
2022/12/08 07:38:28;;;;;;;11.60;8.13;;;;;;;6.41;70.84;100319.94;4974968;28;97013;-47
2022/12/08 07:40:53;;;;;;;13.33;9.60;;;;;;;6.43;70.75;100322.19;4975707;28;97233;-48
2022/12/08 07:43:19;;;;;;;9.33;7.80;;;;;;;6.39;70.57;100327.09;4980805;28;97421;-47
2022/12/08 07:45:45;;;;;;;11.10;8.50;;;;;;;6.41;70.61;100333.59;4977973;28;97108;-47
2022/12/08 07:48:11;;;;;;;11.70;8.07;;;;;;;6.40;71.23;100326.63;4978586;28;96729;-47
2022/12/08 07:50:36;;;;;;;13.23;7.30;;;;;;;6.41;70.73;100327.38;4975789;28;97094;-47
2022/12/08 07:53:01;;;;;;;13.50;8.20;;;;;;;6.36;71.04;100331.53;4974055;28;97344;-47
2022/12/08 07:55:27;;;;;;;10.20;6.90;;;;;;;6.39;71.16;100330.59;4972310;28;97059;-47
2022/12/08 07:57:53;;;;;;;11.43;7.47;;;;;;;6.41;71.18;100339.06;4971760;28;97348;-47
2022/12/08 08:00:19;;;;;;;7.23;6.50;;;;;;;6.39;70.95;100330.59;4971987;28;97085;-47
2022/12/08 08:02:44;;;;;;;8.57;7.30;;;;;;;6.41;71.06;100330.88;4979169;28;98574;-47
2022/12/08 08:05:13;;;;;;;8.10;6.60;;;;;;;6.39;71.05;100335.28;4978447;28;96752;-48
2022/12/08 08:07:41;;;;;;;7.67;6.13;;;;;;;6.36;70.71;100331.53;4978258;28;97458;-47
2022/12/08 08:10:08;;;;;;;8.10;6.10;;;;;;;6.39;71.14;100332.56;4981867;28;97863;-47
2022/12/08 08:12:34;;;;;;;7.73;6.30;;;;;;;6.36;70.76;100330.75;4971909;28;101209;-48
2022/12/08 08:15:00;;;;;;;8.87;7.20;;;;;;;6.35;71.10;100335.50;4971997;28;97291;-47
2022/12/08 08:17:25;;;;;;;7.00;6.10;;;;;;;6.36;70.74;100339.72;4978439;28;97141;-48
2022/12/08 08:19:51;;;;;;;8.10;6.53;;;;;;;6.39;70.77;100340.75;4978960;28;97406;-47
2022/12/08 08:22:16;;;;;;;8.07;6.40;;;;;;;6.41;70.86;100332.84;4980001;28;97346;-47
2022/12/08 08:24:41;;;;;;;7.23;5.97;;;;;;;6.37;70.83;100333.03;4980462;28;97065;-47
2022/12/08 08:27:07;;;;;;;10.30;6.20;;;;;;;6.36;70.95;100338.97;4979936;28;97118;-47
2022/12/08 08:29:32;;;;;;;9.33;6.93;;;;;;;6.37;70.90;100335.03;4974552;28;97341;-47
2022/12/08 08:31:58;;;;;;;7.50;6.60;;;;;;;6.35;70.94;100340.19;4981171;28;97764;-47
2022/12/08 08:34:23;;;;;;;7.53;6.50;;;;;;;6.36;70.84;100347.16;4980924;28;97274;-47
2022/12/08 08:36:49;;;;;;;8.17;5.90;;;;;;;6.34;70.56;100347.63;4977263;28;96908;-47
2022/12/08 08:39:14;;;;;;;6.53;5.83;;;;;;;6.35;70.60;100345.66;4980510;28;97633;-48
2022/12/08 08:41:40;;;;;;;7.70;6.57;;;;;;;6.34;70.99;100336.72;4976166;28;97306;-47
2022/12/08 08:44:06;;;;;;;7.97;6.87;;;;;;;6.35;70.99;100340.19;4978672;28;97063;-47
2022/12/08 08:46:31;;;;;;;8.43;6.50;;;;;;;6.35;71.06;100343.69;4979499;28;97144;-47
2022/12/08 08:48:57;;;;;;;6.87;6.17;;;;;;;6.34;70.91;100333.22;4976905;28;97761;-48
2022/12/08 08:51:22;;;;;;;8.20;6.10;;;;;;;6.33;70.95;100335.22;4977477;28;99287;-47
2022/12/08 08:53:48;;;;;;;10.63;6.63;;;;;;;6.34;71.18;100335.94;4978207;28;105032;-47
2022/12/08 08:56:18;;;;;;;7.80;6.43;;;;;;;6.32;70.64;100341.13;4979083;28;96874;-47
2022/12/08 08:58:45;;;;;;;10.23;6.80;;;;;;;6.33;71.11;100354.34;4980558;28;96963;-48
2022/12/08 09:01:16;;;;;;;10.50;6.67;;;;;;;6.36;70.76;100352.63;4978957;28;97292;-47
2022/12/08 09:03:42;;;;;;;8.00;6.43;;;;;;;6.39;70.87;100351.69;4965799;28;97138;-48
2022/12/08 09:06:07;;;;;;;8.23;6.40;;;;;;;6.41;70.84;100349.25;4956966;28;97686;-48
2022/12/08 09:08:32;;;;;;;6.63;5.90;;;;;;;6.43;70.67;100357.72;4979941;28;96862;-47
2022/12/08 09:10:58;;;;;;;9.03;6.80;;;;;;;6.43;70.74;100344.06;4978047;28;97370;-47
2022/12/08 09:13:23;;;;;;;8.00;6.80;;;;;;;6.44;70.79;100343.59;4963670;28;97395;-48
2022/12/08 09:15:48;;;;;;;6.97;6.27;;;;;;;6.47;70.89;100344.63;4974954;28;96901;-48
2022/12/08 09:18:14;;;;;;;8.20;6.10;;;;;;;6.49;70.82;100347.63;4977485;28;97281;-47
2022/12/08 09:20:39;;;;;;;7.70;6.40;;;;;;;6.54;70.58;100352.44;4978137;28;97234;-48
2022/12/08 09:23:04;;;;;;;6.83;6.13;;;;;;;6.58;70.92;100358.47;4984595;28;97156;-48
2022/12/08 09:25:30;;;;;;;8.23;6.10;;;;;;;6.61;70.62;100358.31;4984672;28;97049;-47
2022/12/08 09:27:55;;;;;;;8.17;6.97;;;;;;;6.64;70.72;100362.06;4986131;28;97529;-48
2022/12/08 09:30:20;;;;;;;8.43;6.83;;;;;;;6.66;70.49;100363.09;4984618;28;99289;-47
2022/12/08 09:32:46;;;;;;;7.00;6.10;;;;;;;6.70;70.34;100349.25;4980596;28;96896;-47
2022/12/08 09:35:11;;;;;;;8.20;6.40;;;;;;;6.75;70.53;100359.50;4982501;28;97295;-47
2022/12/08 09:37:36;;;;;;;8.80;6.83;;;;;;;6.75;70.15;100356.75;4981588;28;97240;-48
2022/12/08 09:40:04;;;;;;;7.60;6.40;;;;;;;6.76;70.30;100352.81;4977833;28;97271;-47
2022/12/08 09:43:02;;;;;;;8.20;6.90;;;;;;;6.78;70.19;100350.34;4983380;28;98456;-47
2022/12/08 09:45:32;;;;;;;7.47;6.70;;;;;;;6.80;70.31;100345.16;4986831;28;97450;-47
2022/12/08 09:47:59;;;;;;;10.50;6.67;;;;;;;6.80;70.19;100353.38;4982452;28;97440;-47
2022/12/08 09:50:37;;;;;;;7.03;6.37;;;;;;;6.81;70.11;100347.41;4982776;28;97065;-47
2022/12/08 09:53:11;;;;;;;9.30;6.70;;;;;;;6.85;70.54;100349.97;4981806;28;97877;-47
2022/12/08 09:55:39;;;;;;;7.20;6.17;;;;;;;6.87;70.42;100347.53;4980040;28;96923;-47
2022/12/08 09:58:16;;;;;;;7.50;6.10;;;;;;;6.89;70.21;100349.78;4982426;28;97048;-47
2022/12/08 10:00:41;;;;;;;6.90;5.90;;;;;;;6.88;70.05;100346.28;4980795;28;97234;-48
2022/12/08 10:03:11;;;;;;;7.30;6.40;;;;;;;6.90;70.38;100349.31;4984518;28;97218;-47
2022/12/08 10:05:43;;;;;;;7.00;6.27;;;;;;;6.94;70.02;100349.13;4983000;28;96912;-48
2022/12/08 10:08:16;;;;;;;8.53;5.93;;;;;;;6.92;70.05;100348.84;4978417;28;96957;-47
2022/12/08 10:10:47;;;;;;;6.70;5.90;;;;;;;6.92;70.28;100348.84;4982740;28;97527;-48
2022/12/08 10:13:24;;;;;;;7.87;6.17;;;;;;;6.95;70.19;100348.63;4982594;28;98370;-47
2022/12/08 10:16:05;;;;;;;6.87;5.67;;;;;;;6.98;70.03;100341.47;4982215;27;97289;-47
2022/12/08 10:18:32;;;;;;;8.43;6.00;;;;;;;6.99;69.98;100338.25;4981633;28;96955;-47
2022/12/08 10:21:15;;;;;;;6.90;5.87;;;;;;;7.02;69.83;100348.25;4982579;28;97770;-47
2022/12/08 10:23:45;;;;;;;6.63;5.93;;;;;;;7.04;69.76;100331.34;4953498;28;100068;-47
2022/12/08 10:26:14;;;;;;;7.33;5.63;;;;;;;7.01;70.23;100360.41;4983751;28;97589;-47
2022/12/08 10:28:40;;;;;;;6.00;5.40;;;;;;;7.01;69.97;100340.53;4967667;28;96885;-47
2022/12/08 10:31:13;;;;;;;6.23;5.63;;;;;;;7.01;70.07;100346.72;4970474;28;97276;-48
2022/12/08 10:33:39;;;;;;;7.90;6.43;;;;;;;7.04;70.16;100343.06;4981744;28;96723;-47
2022/12/08 10:36:04;;;;;;;6.20;5.60;;;;;;;7.06;70.29;100343.34;4984383;28;97797;-48
2022/12/08 10:38:38;;;;;;;6.63;5.97;;;;;;;7.06;69.95;100348.81;4982525;28;97253;-48
2022/12/08 10:41:08;;;;;;;5.77;5.27;;;;;;;7.05;70.16;100344.56;4982743;28;104283;-48
2022/12/08 10:43:37;;;;;;;5.67;5.13;;;;;;;6.99;70.13;100348.47;4983585;28;96933;-47
2022/12/08 10:46:11;;;;;;;6.40;5.77;;;;;;;7.01;70.07;100346.00;4981129;28;97287;-47
2022/12/08 10:48:47;;;;;;;7.83;5.83;;;;;;;7.04;70.14;100343.06;4955142;28;97795;-48
2022/12/08 10:51:43;;;;;;;8.13;6.50;;;;;;;7.09;69.82;100339.66;4972370;28;97567;-49
2022/12/08 10:54:32;;;;;;;6.07;5.47;;;;;;;7.11;70.09;100341.91;4964721;28;101622;-47
2022/12/08 10:56:57;;;;;;;5.90;5.30;;;;;;;7.14;70.11;100341.69;4967980;28;97488;-47
2022/12/08 10:59:26;;;;;;;6.30;5.73;;;;;;;7.12;70.02;100335.94;4982832;28;97270;-47
2022/12/08 11:01:54;;;;;;;5.77;5.17;;;;;;;7.15;70.34;100354.16;4984453;28;98312;-47
2022/12/08 11:04:25;;;;;;;7.73;5.90;;;;;;;7.19;70.05;100341.03;4976218;28;97257;-48
2022/12/08 11:06:51;;;;;;;6.03;5.43;;;;;;;7.21;70.08;100344.03;4980115;28;97147;-47
2022/12/08 11:09:17;;;;;;;7.00;6.40;;;;;;;7.22;69.87;100334.63;4983748;28;99213;-47
2022/12/08 11:11:59;;;;;;;8.50;5.70;;;;;;;7.20;69.92;100341.78;4980350;28;97265;-47
2022/12/08 11:14:30;;;;;;;7.53;5.87;;;;;;;7.23;69.92;100341.59;4959233;28;101751;-47
2022/12/08 11:17:05;;;;;;;5.97;5.40;;;;;;;7.27;69.86;100342.13;4961581;28;96856;-47
2022/12/08 11:19:36;;;;;;;6.20;5.53;;;;;;;7.29;70.11;100342.44;4951609;28;97007;-47
2022/12/08 11:22:18;;;;;;;6.90;5.33;;;;;;;7.29;70.00;100344.41;4969335;28;101209;-47
2022/12/08 11:24:44;;;;;;;6.17;5.57;;;;;;;7.30;69.88;100351.38;4976387;27;100441;-47
2022/12/08 11:27:09;;;;;;;7.43;5.00;;;;;;;7.31;70.14;100345.44;4964458;28;97763;-48
2022/12/08 11:29:35;;;;;;;6.50;5.90;;;;;;;7.33;69.74;100345.72;4984264;28;97827;-47
2022/12/08 11:32:13;;;;;;;6.87;6.10;;;;;;;7.33;69.49;100353.16;4980167;28;97886;-47
2022/12/08 11:34:58;;;;;;;5.70;5.10;;;;;;;7.31;69.54;100345.44;4977390;28;97160;-47
2022/12/08 11:37:47;;;;;;;6.93;5.37;;;;;;;7.29;69.59;100339.69;4962409;28;97211;-47
2022/12/08 11:40:19;;;;;;;5.00;4.60;;;;;;;7.32;69.67;100337.97;4978434;28;96945;-47